sensor_id;sensor_type;location;lat;lon;timestamp;P1;durP1;ratioP1;P2;durP2;ratioP2
19414;SDS011;9843;48.882;12.592;2024-01-30T00:01:20;25.83;;;19.40;;
19414;SDS011;9843;48.882;12.592;2024-01-30T00:03:47;28.57;;;19.73;;
19414;SDS011;9843;48.882;12.592;2024-01-30T00:06:17;27.43;;;19.73;;
19414;SDS011;9843;48.882;12.592;2024-01-30T00:08:46;26.43;;;19.93;;
19414;SDS011;9843;48.882;12.592;2024-01-30T00:11:14;25.67;;;17.70;;
19414;SDS011;9843;48.882;12.592;2024-01-30T00:13:42;24.33;;;18.40;;
19414;SDS011;9843;48.882;12.592;2024-01-30T00:16:19;28.30;;;20.40;;
19414;SDS011;9843;48.882;12.592;2024-01-30T00:18:46;31.20;;;18.73;;
19414;SDS011;9843;48.882;12.592;2024-01-30T00:21:13;27.23;;;20.10;;
19414;SDS011;9843;48.882;12.592;2024-01-30T00:23:40;26.37;;;19.40;;
19414;SDS011;9843;48.882;12.592;2024-01-30T00:26:07;24.93;;;17.40;;
19414;SDS011;9843;48.882;12.592;2024-01-30T00:28:34;22.03;;;18.40;;
19414;SDS011;9843;48.882;12.592;2024-01-30T00:31:03;22.60;;;18.10;;
19414;SDS011;9843;48.882;12.592;2024-01-30T00:33:30;24.87;;;17.97;;
19414;SDS011;9843;48.882;12.592;2024-01-30T00:35:57;23.87;;;19.43;;
19414;SDS011;9843;48.882;12.592;2024-01-30T00:38:24;30.63;;;22.00;;
19414;SDS011;9843;48.882;12.592;2024-01-30T00:40:51;24.97;;;18.73;;
19414;SDS011;9843;48.882;12.592;2024-01-30T00:43:18;33.47;;;20.63;;
19414;SDS011;9843;48.882;12.592;2024-01-30T00:45:46;28.30;;;18.57;;
19414;SDS011;9843;48.882;12.592;2024-01-30T00:48:14;27.80;;;19.10;;
19414;SDS011;9843;48.882;12.592;2024-01-30T00:50:41;28.97;;;20.80;;
19414;SDS011;9843;48.882;12.592;2024-01-30T00:53:08;27.73;;;19.47;;
19414;SDS011;9843;48.882;12.592;2024-01-30T00:55:36;30.53;;;23.13;;
19414;SDS011;9843;48.882;12.592;2024-01-30T00:58:03;27.73;;;20.63;;
19414;SDS011;9843;48.882;12.592;2024-01-30T01:00:30;26.93;;;20.30;;
19414;SDS011;9843;48.882;12.592;2024-01-30T01:02:57;29.07;;;20.50;;
19414;SDS011;9843;48.882;12.592;2024-01-30T01:05:26;26.57;;;19.73;;
19414;SDS011;9843;48.882;12.592;2024-01-30T01:07:53;22.20;;;18.03;;
19414;SDS011;9843;48.882;12.592;2024-01-30T01:10:20;23.07;;;17.47;;
19414;SDS011;9843;48.882;12.592;2024-01-30T01:12:47;24.93;;;20.63;;
19414;SDS011;9843;48.882;12.592;2024-01-30T01:15:14;26.23;;;17.97;;
19414;SDS011;9843;48.882;12.592;2024-01-30T01:17:41;25.53;;;18.83;;
19414;SDS011;9843;48.882;12.592;2024-01-30T01:20:09;29.27;;;19.60;;
19414;SDS011;9843;48.882;12.592;2024-01-30T01:22:37;30.30;;;20.73;;
19414;SDS011;9843;48.882;12.592;2024-01-30T01:25:05;30.73;;;19.20;;
19414;SDS011;9843;48.882;12.592;2024-01-30T01:27:33;31.30;;;20.33;;
19414;SDS011;9843;48.882;12.592;2024-01-30T01:30:05;23.43;;;19.27;;
19414;SDS011;9843;48.882;12.592;2024-01-30T01:32:34;27.33;;;19.50;;
19414;SDS011;9843;48.882;12.592;2024-01-30T01:35:01;21.27;;;17.13;;
19414;SDS011;9843;48.882;12.592;2024-01-30T01:37:30;23.33;;;19.27;;
19414;SDS011;9843;48.882;12.592;2024-01-30T01:39:59;22.57;;;17.60;;
19414;SDS011;9843;48.882;12.592;2024-01-30T01:42:26;22.33;;;17.67;;
19414;SDS011;9843;48.882;12.592;2024-01-30T01:44:53;23.73;;;16.73;;
19414;SDS011;9843;48.882;12.592;2024-01-30T01:47:20;30.80;;;19.90;;
19414;SDS011;9843;48.882;12.592;2024-01-30T01:49:48;26.70;;;18.60;;
19414;SDS011;9843;48.882;12.592;2024-01-30T01:52:15;29.30;;;19.40;;
19414;SDS011;9843;48.882;12.592;2024-01-30T01:54:42;27.43;;;20.13;;
19414;SDS011;9843;48.882;12.592;2024-01-30T01:57:10;30.67;;;20.07;;
19414;SDS011;9843;48.882;12.592;2024-01-30T01:59:37;27.63;;;18.67;;
19414;SDS011;9843;48.882;12.592;2024-01-30T02:02:05;24.07;;;19.60;;
19414;SDS011;9843;48.882;12.592;2024-01-30T02:04:34;38.90;;;20.30;;
19414;SDS011;9843;48.882;12.592;2024-01-30T02:07:01;44.00;;;21.13;;
19414;SDS011;9843;48.882;12.592;2024-01-30T02:09:28;26.90;;;17.73;;
19414;SDS011;9843;48.882;12.592;2024-01-30T02:11:55;28.20;;;18.23;;
19414;SDS011;9843;48.882;12.592;2024-01-30T02:14:23;22.90;;;16.73;;
19414;SDS011;9843;48.882;12.592;2024-01-30T02:16:50;23.03;;;17.17;;
19414;SDS011;9843;48.882;12.592;2024-01-30T02:19:17;29.00;;;18.43;;
19414;SDS011;9843;48.882;12.592;2024-01-30T02:21:46;25.00;;;18.47;;
19414;SDS011;9843;48.882;12.592;2024-01-30T02:24:13;25.17;;;16.43;;
19414;SDS011;9843;48.882;12.592;2024-01-30T02:26:40;23.83;;;17.67;;
19414;SDS011;9843;48.882;12.592;2024-01-30T02:29:08;23.20;;;16.20;;
19414;SDS011;9843;48.882;12.592;2024-01-30T02:31:35;28.37;;;17.60;;
19414;SDS011;9843;48.882;12.592;2024-01-30T02:34:02;20.03;;;15.30;;
19414;SDS011;9843;48.882;12.592;2024-01-30T02:36:29;25.60;;;18.80;;
19414;SDS011;9843;48.882;12.592;2024-01-30T02:38:57;35.87;;;19.17;;
19414;SDS011;9843;48.882;12.592;2024-01-30T02:41:24;24.57;;;18.37;;
19414;SDS011;9843;48.882;12.592;2024-01-30T02:43:51;23.70;;;19.27;;
19414;SDS011;9843;48.882;12.592;2024-01-30T02:46:18;23.57;;;17.37;;
19414;SDS011;9843;48.882;12.592;2024-01-30T02:48:45;26.27;;;17.73;;
19414;SDS011;9843;48.882;12.592;2024-01-30T02:51:12;22.50;;;18.30;;
19414;SDS011;9843;48.882;12.592;2024-01-30T02:53:40;21.17;;;16.73;;
19414;SDS011;9843;48.882;12.592;2024-01-30T02:56:08;23.30;;;17.43;;
19414;SDS011;9843;48.882;12.592;2024-01-30T02:58:35;21.63;;;16.77;;
19414;SDS011;9843;48.882;12.592;2024-01-30T03:01:02;23.40;;;16.73;;
19414;SDS011;9843;48.882;12.592;2024-01-30T03:03:29;22.47;;;18.33;;
19414;SDS011;9843;48.882;12.592;2024-01-30T03:05:57;28.87;;;17.73;;
19414;SDS011;9843;48.882;12.592;2024-01-30T03:08:24;21.80;;;16.80;;
19414;SDS011;9843;48.882;12.592;2024-01-30T03:10:51;24.10;;;18.50;;
19414;SDS011;9843;48.882;12.592;2024-01-30T03:13:19;21.47;;;17.60;;
19414;SDS011;9843;48.882;12.592;2024-01-30T03:15:48;22.37;;;17.33;;
19414;SDS011;9843;48.882;12.592;2024-01-30T03:18:15;30.40;;;19.67;;
19414;SDS011;9843;48.882;12.592;2024-01-30T03:20:43;28.53;;;18.23;;
19414;SDS011;9843;48.882;12.592;2024-01-30T03:23:10;23.63;;;17.87;;
19414;SDS011;9843;48.882;12.592;2024-01-30T03:25:37;31.13;;;18.60;;
19414;SDS011;9843;48.882;12.592;2024-01-30T03:28:04;22.37;;;17.40;;
19414;SDS011;9843;48.882;12.592;2024-01-30T03:30:33;29.57;;;19.77;;
19414;SDS011;9843;48.882;12.592;2024-01-30T03:33:01;28.93;;;17.70;;
19414;SDS011;9843;48.882;12.592;2024-01-30T03:35:28;32.50;;;19.70;;
19414;SDS011;9843;48.882;12.592;2024-01-30T03:37:55;22.33;;;18.77;;
19414;SDS011;9843;48.882;12.592;2024-01-30T03:40:22;47.80;;;21.77;;
19414;SDS011;9843;48.882;12.592;2024-01-30T03:42:49;19.90;;;17.63;;
19414;SDS011;9843;48.882;12.592;2024-01-30T03:45:16;30.73;;;19.83;;
19414;SDS011;9843;48.882;12.592;2024-01-30T03:47:46;28.57;;;18.47;;
19414;SDS011;9843;48.882;12.592;2024-01-30T03:50:13;33.50;;;19.33;;
19414;SDS011;9843;48.882;12.592;2024-01-30T03:52:40;25.83;;;18.80;;
19414;SDS011;9843;48.882;12.592;2024-01-30T03:55:07;29.30;;;20.70;;
19414;SDS011;9843;48.882;12.592;2024-01-30T03:57:34;26.00;;;18.97;;
19414;SDS011;9843;48.882;12.592;2024-01-30T04:00:01;31.57;;;21.90;;
19414;SDS011;9843;48.882;12.592;2024-01-30T04:02:30;25.93;;;18.80;;
19414;SDS011;9843;48.882;12.592;2024-01-30T04:04:58;31.67;;;20.30;;
19414;SDS011;9843;48.882;12.592;2024-01-30T04:07:25;27.53;;;18.63;;
19414;SDS011;9843;48.882;12.592;2024-01-30T04:09:52;30.37;;;19.43;;
19414;SDS011;9843;48.882;12.592;2024-01-30T04:12:19;27.47;;;19.33;;
19414;SDS011;9843;48.882;12.592;2024-01-30T04:14:46;25.03;;;19.20;;
19414;SDS011;9843;48.882;12.592;2024-01-30T04:17:14;26.43;;;20.07;;
19414;SDS011;9843;48.882;12.592;2024-01-30T04:19:41;28.50;;;19.03;;
19414;SDS011;9843;48.882;12.592;2024-01-30T04:22:09;27.37;;;18.30;;
19414;SDS011;9843;48.882;12.592;2024-01-30T04:24:36;31.00;;;20.50;;
19414;SDS011;9843;48.882;12.592;2024-01-30T04:27:03;30.40;;;17.77;;
19414;SDS011;9843;48.882;12.592;2024-01-30T04:29:31;23.83;;;19.90;;
19414;SDS011;9843;48.882;12.592;2024-01-30T04:31:59;25.57;;;20.03;;
19414;SDS011;9843;48.882;12.592;2024-01-30T04:34:26;22.07;;;17.73;;
19414;SDS011;9843;48.882;12.592;2024-01-30T04:36:53;27.43;;;19.97;;
19414;SDS011;9843;48.882;12.592;2024-01-30T04:39:21;23.23;;;18.53;;
19414;SDS011;9843;48.882;12.592;2024-01-30T04:41:48;27.97;;;20.03;;
19414;SDS011;9843;48.882;12.592;2024-01-30T04:44:15;28.63;;;20.53;;
19414;SDS011;9843;48.882;12.592;2024-01-30T04:46:42;28.13;;;21.17;;
19414;SDS011;9843;48.882;12.592;2024-01-30T04:49:09;33.00;;;22.30;;
19414;SDS011;9843;48.882;12.592;2024-01-30T04:51:36;30.17;;;19.57;;
19414;SDS011;9843;48.882;12.592;2024-01-30T04:54:04;33.63;;;21.53;;
19414;SDS011;9843;48.882;12.592;2024-01-30T04:56:32;25.87;;;18.93;;
19414;SDS011;9843;48.882;12.592;2024-01-30T04:59:01;26.50;;;18.73;;
19414;SDS011;9843;48.882;12.592;2024-01-30T05:01:29;27.07;;;20.67;;
19414;SDS011;9843;48.882;12.592;2024-01-30T05:03:56;32.53;;;22.33;;
19414;SDS011;9843;48.882;12.592;2024-01-30T05:06:26;37.43;;;21.90;;
19414;SDS011;9843;48.882;12.592;2024-01-30T05:08:53;35.37;;;22.70;;
19414;SDS011;9843;48.882;12.592;2024-01-30T05:11:20;38.07;;;22.07;;
19414;SDS011;9843;48.882;12.592;2024-01-30T05:13:49;30.63;;;20.40;;
19414;SDS011;9843;48.882;12.592;2024-01-30T05:16:16;34.27;;;22.97;;
19414;SDS011;9843;48.882;12.592;2024-01-30T05:18:43;31.73;;;22.50;;
19414;SDS011;9843;48.882;12.592;2024-01-30T05:21:10;32.90;;;19.77;;
19414;SDS011;9843;48.882;12.592;2024-01-30T05:23:37;27.37;;;23.33;;
19414;SDS011;9843;48.882;12.592;2024-01-30T05:26:05;29.83;;;22.20;;
19414;SDS011;9843;48.882;12.592;2024-01-30T05:28:32;38.73;;;25.37;;
19414;SDS011;9843;48.882;12.592;2024-01-30T05:31:00;44.63;;;25.23;;
19414;SDS011;9843;48.882;12.592;2024-01-30T05:33:27;35.43;;;24.87;;
19414;SDS011;9843;48.882;12.592;2024-01-30T05:35:54;41.10;;;28.50;;
19414;SDS011;9843;48.882;12.592;2024-01-30T05:38:21;33.97;;;24.63;;
19414;SDS011;9843;48.882;12.592;2024-01-30T05:40:48;35.53;;;24.40;;
19414;SDS011;9843;48.882;12.592;2024-01-30T05:43:15;34.67;;;21.83;;
19414;SDS011;9843;48.882;12.592;2024-01-30T05:45:42;33.67;;;21.83;;
19414;SDS011;9843;48.882;12.592;2024-01-30T05:48:11;35.53;;;23.23;;
19414;SDS011;9843;48.882;12.592;2024-01-30T05:50:38;36.20;;;24.73;;
19414;SDS011;9843;48.882;12.592;2024-01-30T05:53:05;38.60;;;26.07;;
19414;SDS011;9843;48.882;12.592;2024-01-30T05:55:32;39.73;;;27.37;;
19414;SDS011;9843;48.882;12.592;2024-01-30T05:57:59;45.93;;;30.90;;
19414;SDS011;9843;48.882;12.592;2024-01-30T06:00:26;47.33;;;29.47;;
19414;SDS011;9843;48.882;12.592;2024-01-30T06:02:53;48.83;;;30.57;;
19414;SDS011;9843;48.882;12.592;2024-01-30T06:05:22;35.63;;;25.70;;
19414;SDS011;9843;48.882;12.592;2024-01-30T06:07:49;37.67;;;25.20;;
19414;SDS011;9843;48.882;12.592;2024-01-30T06:10:16;36.07;;;23.47;;
19414;SDS011;9843;48.882;12.592;2024-01-30T06:12:43;38.43;;;26.73;;
19414;SDS011;9843;48.882;12.592;2024-01-30T06:15:10;34.53;;;25.07;;
19414;SDS011;9843;48.882;12.592;2024-01-30T06:17:38;39.73;;;27.30;;
19414;SDS011;9843;48.882;12.592;2024-01-30T06:20:06;29.70;;;23.03;;
19414;SDS011;9843;48.882;12.592;2024-01-30T06:22:34;30.40;;;22.80;;
19414;SDS011;9843;48.882;12.592;2024-01-30T06:25:01;34.67;;;25.90;;
19414;SDS011;9843;48.882;12.592;2024-01-30T06:27:29;30.33;;;21.77;;
19414;SDS011;9843;48.882;12.592;2024-01-30T06:29:56;39.07;;;24.90;;
19414;SDS011;9843;48.882;12.592;2024-01-30T06:32:23;31.20;;;23.70;;
19414;SDS011;9843;48.882;12.592;2024-01-30T06:34:50;38.80;;;25.13;;
19414;SDS011;9843;48.882;12.592;2024-01-30T06:37:17;50.87;;;33.47;;
19414;SDS011;9843;48.882;12.592;2024-01-30T06:39:45;67.27;;;36.40;;
19414;SDS011;9843;48.882;12.592;2024-01-30T06:42:12;60.60;;;34.77;;
19414;SDS011;9843;48.882;12.592;2024-01-30T06:44:39;51.80;;;33.90;;
19414;SDS011;9843;48.882;12.592;2024-01-30T06:47:06;48.13;;;32.70;;
19414;SDS011;9843;48.882;12.592;2024-01-30T06:49:33;48.73;;;29.37;;
19414;SDS011;9843;48.882;12.592;2024-01-30T06:52:03;45.30;;;31.57;;
19414;SDS011;9843;48.882;12.592;2024-01-30T06:54:30;42.67;;;30.03;;
19414;SDS011;9843;48.882;12.592;2024-01-30T06:56:59;44.53;;;30.13;;
19414;SDS011;9843;48.882;12.592;2024-01-30T06:59:26;42.33;;;28.27;;
19414;SDS011;9843;48.882;12.592;2024-01-30T07:01:53;44.90;;;27.60;;
19414;SDS011;9843;48.882;12.592;2024-01-30T07:04:20;47.83;;;28.60;;
19414;SDS011;9843;48.882;12.592;2024-01-30T07:06:47;40.60;;;27.20;;
19414;SDS011;9843;48.882;12.592;2024-01-30T07:09:14;35.43;;;28.30;;
19414;SDS011;9843;48.882;12.592;2024-01-30T07:11:41;44.07;;;30.37;;
19414;SDS011;9843;48.882;12.592;2024-01-30T07:14:10;36.90;;;25.07;;
19414;SDS011;9843;48.882;12.592;2024-01-30T07:16:37;42.93;;;30.20;;
19414;SDS011;9843;48.882;12.592;2024-01-30T07:19:04;35.87;;;28.33;;
19414;SDS011;9843;48.882;12.592;2024-01-30T07:21:33;44.33;;;27.60;;
19414;SDS011;9843;48.882;12.592;2024-01-30T07:24:00;48.97;;;29.50;;
19414;SDS011;9843;48.882;12.592;2024-01-30T07:26:27;40.60;;;28.90;;
19414;SDS011;9843;48.882;12.592;2024-01-30T07:28:54;57.40;;;38.33;;
19414;SDS011;9843;48.882;12.592;2024-01-30T07:31:23;47.50;;;35.63;;
19414;SDS011;9843;48.882;12.592;2024-01-30T07:33:50;45.97;;;30.73;;
19414;SDS011;9843;48.882;12.592;2024-01-30T07:36:17;40.43;;;27.37;;
19414;SDS011;9843;48.882;12.592;2024-01-30T07:38:44;39.23;;;29.27;;
19414;SDS011;9843;48.882;12.592;2024-01-30T07:41:11;46.20;;;29.27;;
19414;SDS011;9843;48.882;12.592;2024-01-30T07:43:38;39.20;;;27.87;;
19414;SDS011;9843;48.882;12.592;2024-01-30T07:46:05;38.80;;;28.20;;
19414;SDS011;9843;48.882;12.592;2024-01-30T07:48:33;39.60;;;27.33;;
19414;SDS011;9843;48.882;12.592;2024-01-30T07:51:01;39.33;;;27.77;;
19414;SDS011;9843;48.882;12.592;2024-01-30T07:53:29;39.73;;;28.50;;
19414;SDS011;9843;48.882;12.592;2024-01-30T07:55:56;36.17;;;24.60;;
19414;SDS011;9843;48.882;12.592;2024-01-30T07:58:23;34.23;;;26.67;;
19414;SDS011;9843;48.882;12.592;2024-01-30T08:00:52;35.00;;;26.17;;
19414;SDS011;9843;48.882;12.592;2024-01-30T08:03:19;29.23;;;22.90;;
19414;SDS011;9843;48.882;12.592;2024-01-30T08:05:47;27.03;;;22.20;;
19414;SDS011;9843;48.882;12.592;2024-01-30T08:08:14;25.10;;;19.53;;
19414;SDS011;9843;48.882;12.592;2024-01-30T08:10:42;32.60;;;19.20;;
19414;SDS011;9843;48.882;12.592;2024-01-30T08:13:09;23.50;;;17.70;;
19414;SDS011;9843;48.882;12.592;2024-01-30T08:15:36;27.57;;;18.43;;
19414;SDS011;9843;48.882;12.592;2024-01-30T08:18:03;25.90;;;19.57;;
19414;SDS011;9843;48.882;12.592;2024-01-30T08:20:31;23.87;;;16.63;;
19414;SDS011;9843;48.882;12.592;2024-01-30T08:23:00;24.57;;;17.80;;
19414;SDS011;9843;48.882;12.592;2024-01-30T08:25:27;26.27;;;18.60;;
19414;SDS011;9843;48.882;12.592;2024-01-30T08:27:54;20.47;;;17.70;;
19414;SDS011;9843;48.882;12.592;2024-01-30T08:30:22;36.13;;;20.60;;
19414;SDS011;9843;48.882;12.592;2024-01-30T08:32:49;29.40;;;21.33;;
19414;SDS011;9843;48.882;12.592;2024-01-30T08:35:16;24.73;;;19.43;;
19414;SDS011;9843;48.882;12.592;2024-01-30T08:37:43;25.43;;;18.93;;
19414;SDS011;9843;48.882;12.592;2024-01-30T08:40:12;31.83;;;23.30;;
19414;SDS011;9843;48.882;12.592;2024-01-30T08:42:39;28.70;;;20.80;;
19414;SDS011;9843;48.882;12.592;2024-01-30T08:45:06;34.40;;;20.53;;
19414;SDS011;9843;48.882;12.592;2024-01-30T08:47:34;23.80;;;19.40;;
19414;SDS011;9843;48.882;12.592;2024-01-30T08:50:01;29.40;;;21.07;;
19414;SDS011;9843;48.882;12.592;2024-01-30T08:52:29;32.17;;;18.67;;
19414;SDS011;9843;48.882;12.592;2024-01-30T08:54:56;31.30;;;22.77;;
19414;SDS011;9843;48.882;12.592;2024-01-30T08:57:24;36.23;;;24.43;;
19414;SDS011;9843;48.882;12.592;2024-01-30T08:59:53;43.17;;;23.27;;
19414;SDS011;9843;48.882;12.592;2024-01-30T09:02:20;28.10;;;21.97;;
19414;SDS011;9843;48.882;12.592;2024-01-30T09:04:47;40.00;;;25.47;;
19414;SDS011;9843;48.882;12.592;2024-01-30T09:07:14;32.87;;;20.73;;
19414;SDS011;9843;48.882;12.592;2024-01-30T09:09:41;35.57;;;25.00;;
19414;SDS011;9843;48.882;12.592;2024-01-30T09:12:09;28.13;;;23.13;;
19414;SDS011;9843;48.882;12.592;2024-01-30T09:14:38;28.47;;;22.00;;
19414;SDS011;9843;48.882;12.592;2024-01-30T09:17:06;28.90;;;22.00;;
19414;SDS011;9843;48.882;12.592;2024-01-30T09:19:33;33.07;;;23.23;;
19414;SDS011;9843;48.882;12.592;2024-01-30T09:22:00;32.37;;;21.70;;
19414;SDS011;9843;48.882;12.592;2024-01-30T09:24:28;33.03;;;22.63;;
19414;SDS011;9843;48.882;12.592;2024-01-30T09:26:55;37.93;;;25.60;;
19414;SDS011;9843;48.882;12.592;2024-01-30T09:29:22;34.93;;;22.93;;
19414;SDS011;9843;48.882;12.592;2024-01-30T09:31:50;30.50;;;24.37;;
19414;SDS011;9843;48.882;12.592;2024-01-30T09:34:17;27.07;;;23.73;;
19414;SDS011;9843;48.882;12.592;2024-01-30T09:36:44;30.67;;;25.30;;
19414;SDS011;9843;48.882;12.592;2024-01-30T09:39:11;35.07;;;23.33;;
19414;SDS011;9843;48.882;12.592;2024-01-30T09:41:40;34.97;;;23.53;;
19414;SDS011;9843;48.882;12.592;2024-01-30T09:44:10;29.53;;;22.07;;
19414;SDS011;9843;48.882;12.592;2024-01-30T09:46:38;31.27;;;23.57;;
19414;SDS011;9843;48.882;12.592;2024-01-30T09:49:07;26.17;;;19.07;;
19414;SDS011;9843;48.882;12.592;2024-01-30T09:51:34;30.17;;;21.73;;
19414;SDS011;9843;48.882;12.592;2024-01-30T09:54:02;32.37;;;21.37;;
19414;SDS011;9843;48.882;12.592;2024-01-30T09:56:29;35.40;;;21.10;;
19414;SDS011;9843;48.882;12.592;2024-01-30T09:58:56;28.00;;;22.37;;
19414;SDS011;9843;48.882;12.592;2024-01-30T10:01:23;24.90;;;20.40;;
19414;SDS011;9843;48.882;12.592;2024-01-30T10:03:51;29.57;;;22.73;;
19414;SDS011;9843;48.882;12.592;2024-01-30T10:06:19;30.87;;;20.90;;
19414;SDS011;9843;48.882;12.592;2024-01-30T10:08:47;28.13;;;20.33;;
19414;SDS011;9843;48.882;12.592;2024-01-30T10:11:14;25.30;;;18.43;;
19414;SDS011;9843;48.882;12.592;2024-01-30T10:13:41;30.60;;;19.80;;
19414;SDS011;9843;48.882;12.592;2024-01-30T10:16:08;30.93;;;23.77;;
19414;SDS011;9843;48.882;12.592;2024-01-30T10:18:35;29.20;;;18.13;;
19414;SDS011;9843;48.882;12.592;2024-01-30T10:21:02;23.10;;;18.77;;
19414;SDS011;9843;48.882;12.592;2024-01-30T10:23:31;21.03;;;18.90;;
19414;SDS011;9843;48.882;12.592;2024-01-30T10:25:58;26.20;;;20.80;;
19414;SDS011;9843;48.882;12.592;2024-01-30T10:28:26;25.37;;;17.30;;
19414;SDS011;9843;48.882;12.592;2024-01-30T10:30:58;23.03;;;16.60;;
19414;SDS011;9843;48.882;12.592;2024-01-30T10:33:25;26.83;;;18.63;;
19414;SDS011;9843;48.882;12.592;2024-01-30T10:35:54;25.17;;;18.67;;
19414;SDS011;9843;48.882;12.592;2024-01-30T10:38:21;27.77;;;17.97;;
19414;SDS011;9843;48.882;12.592;2024-01-30T10:40:51;22.37;;;17.60;;
19414;SDS011;9843;48.882;12.592;2024-01-30T10:43:20;31.33;;;20.07;;
19414;SDS011;9843;48.882;12.592;2024-01-30T10:45:49;24.63;;;17.53;;
19414;SDS011;9843;48.882;12.592;2024-01-30T10:48:16;25.57;;;18.90;;
19414;SDS011;9843;48.882;12.592;2024-01-30T10:50:44;25.33;;;20.57;;
19414;SDS011;9843;48.882;12.592;2024-01-30T10:53:12;25.13;;;19.80;;
19414;SDS011;9843;48.882;12.592;2024-01-30T10:55:39;26.90;;;18.30;;
19414;SDS011;9843;48.882;12.592;2024-01-30T10:58:08;23.83;;;19.73;;
19414;SDS011;9843;48.882;12.592;2024-01-30T11:00:36;30.40;;;21.70;;
19414;SDS011;9843;48.882;12.592;2024-01-30T11:03:04;24.40;;;19.00;;
19414;SDS011;9843;48.882;12.592;2024-01-30T11:05:31;31.80;;;21.77;;
19414;SDS011;9843;48.882;12.592;2024-01-30T11:08:09;29.30;;;19.53;;
19414;SDS011;9843;48.882;12.592;2024-01-30T11:10:44;22.30;;;16.60;;
19414;SDS011;9843;48.882;12.592;2024-01-30T11:13:13;20.53;;;17.50;;
19414;SDS011;9843;48.882;12.592;2024-01-30T11:15:40;26.73;;;18.40;;
19414;SDS011;9843;48.882;12.592;2024-01-30T11:18:07;19.07;;;16.77;;
19414;SDS011;9843;48.882;12.592;2024-01-30T11:20:34;23.23;;;17.20;;
19414;SDS011;9843;48.882;12.592;2024-01-30T11:23:01;22.67;;;17.03;;
19414;SDS011;9843;48.882;12.592;2024-01-30T11:25:31;27.00;;;17.83;;
19414;SDS011;9843;48.882;12.592;2024-01-30T11:27:58;22.30;;;16.03;;
19414;SDS011;9843;48.882;12.592;2024-01-30T11:30:27;24.90;;;16.27;;
19414;SDS011;9843;48.882;12.592;2024-01-30T11:33:00;24.10;;;16.50;;
19414;SDS011;9843;48.882;12.592;2024-01-30T11:35:29;26.33;;;18.30;;
19414;SDS011;9843;48.882;12.592;2024-01-30T11:37:57;18.73;;;14.60;;
19414;SDS011;9843;48.882;12.592;2024-01-30T11:40:25;23.07;;;14.97;;
19414;SDS011;9843;48.882;12.592;2024-01-30T11:42:53;27.23;;;17.37;;
19414;SDS011;9843;48.882;12.592;2024-01-30T11:45:20;17.10;;;13.63;;
19414;SDS011;9843;48.882;12.592;2024-01-30T11:47:48;19.70;;;13.73;;
19414;SDS011;9843;48.882;12.592;2024-01-30T11:50:15;18.60;;;13.57;;
19414;SDS011;9843;48.882;12.592;2024-01-30T11:52:43;20.10;;;17.43;;
19414;SDS011;9843;48.882;12.592;2024-01-30T11:55:10;23.23;;;15.87;;
19414;SDS011;9843;48.882;12.592;2024-01-30T11:57:37;16.13;;;14.50;;
19414;SDS011;9843;48.882;12.592;2024-01-30T12:00:05;26.27;;;17.57;;
19414;SDS011;9843;48.882;12.592;2024-01-30T12:02:35;18.80;;;13.67;;
19414;SDS011;9843;48.882;12.592;2024-01-30T12:05:05;16.83;;;12.97;;
19414;SDS011;9843;48.882;12.592;2024-01-30T12:07:32;16.70;;;13.40;;
19414;SDS011;9843;48.882;12.592;2024-01-30T12:09:59;17.43;;;10.93;;
19414;SDS011;9843;48.882;12.592;2024-01-30T12:12:26;16.80;;;13.67;;
19414;SDS011;9843;48.882;12.592;2024-01-30T12:14:54;21.53;;;12.83;;
19414;SDS011;9843;48.882;12.592;2024-01-30T12:17:26;18.57;;;14.30;;
19414;SDS011;9843;48.882;12.592;2024-01-30T12:20:02;16.77;;;13.97;;
19414;SDS011;9843;48.882;12.592;2024-01-30T12:22:30;24.43;;;14.93;;
19414;SDS011;9843;48.882;12.592;2024-01-30T12:24:57;26.63;;;15.13;;
19414;SDS011;9843;48.882;12.592;2024-01-30T12:27:24;21.67;;;13.67;;
19414;SDS011;9843;48.882;12.592;2024-01-30T12:29:55;17.27;;;13.07;;
19414;SDS011;9843;48.882;12.592;2024-01-30T12:32:23;19.83;;;14.97;;
19414;SDS011;9843;48.882;12.592;2024-01-30T12:34:50;16.47;;;13.43;;
19414;SDS011;9843;48.882;12.592;2024-01-30T12:37:17;19.77;;;13.70;;
19414;SDS011;9843;48.882;12.592;2024-01-30T12:39:48;16.87;;;13.67;;
19414;SDS011;9843;48.882;12.592;2024-01-30T12:42:15;18.40;;;14.20;;
19414;SDS011;9843;48.882;12.592;2024-01-30T12:44:43;14.47;;;12.93;;
19414;SDS011;9843;48.882;12.592;2024-01-30T12:47:10;19.53;;;14.70;;
19414;SDS011;9843;48.882;12.592;2024-01-30T12:49:37;17.00;;;14.90;;
19414;SDS011;9843;48.882;12.592;2024-01-30T12:52:04;20.83;;;15.87;;
19414;SDS011;9843;48.882;12.592;2024-01-30T12:54:31;21.50;;;14.13;;
19414;SDS011;9843;48.882;12.592;2024-01-30T12:57:00;17.67;;;15.50;;
19414;SDS011;9843;48.882;12.592;2024-01-30T12:59:26;21.50;;;14.63;;
19414;SDS011;9843;48.882;12.592;2024-01-30T13:01:53;22.60;;;17.77;;
19414;SDS011;9843;48.882;12.592;2024-01-30T13:04:20;22.37;;;17.50;;
19414;SDS011;9843;48.882;12.592;2024-01-30T13:06:47;25.17;;;16.67;;
19414;SDS011;9843;48.882;12.592;2024-01-30T13:09:14;24.30;;;17.53;;
19414;SDS011;9843;48.882;12.592;2024-01-30T13:11:41;20.50;;;15.77;;
19414;SDS011;9843;48.882;12.592;2024-01-30T13:14:10;23.60;;;17.70;;
19414;SDS011;9843;48.882;12.592;2024-01-30T13:16:37;26.83;;;18.63;;
19414;SDS011;9843;48.882;12.592;2024-01-30T13:19:04;28.27;;;16.63;;
19414;SDS011;9843;48.882;12.592;2024-01-30T13:21:31;22.37;;;16.80;;
19414;SDS011;9843;48.882;12.592;2024-01-30T13:23:58;22.73;;;17.50;;
19414;SDS011;9843;48.882;12.592;2024-01-30T13:26:25;25.23;;;17.90;;
19414;SDS011;9843;48.882;12.592;2024-01-30T13:28:52;26.33;;;16.17;;
19414;SDS011;9843;48.882;12.592;2024-01-30T13:31:21;22.63;;;17.37;;
19414;SDS011;9843;48.882;12.592;2024-01-30T13:33:48;22.87;;;19.60;;
19414;SDS011;9843;48.882;12.592;2024-01-30T13:36:15;23.60;;;15.60;;
19414;SDS011;9843;48.882;12.592;2024-01-30T13:38:42;20.83;;;17.83;;
19414;SDS011;9843;48.882;12.592;2024-01-30T13:41:09;25.90;;;17.77;;
19414;SDS011;9843;48.882;12.592;2024-01-30T13:43:36;24.57;;;16.73;;
19414;SDS011;9843;48.882;12.592;2024-01-30T13:46:03;24.77;;;17.20;;
19414;SDS011;9843;48.882;12.592;2024-01-30T13:48:32;24.93;;;18.83;;
19414;SDS011;9843;48.882;12.592;2024-01-30T13:50:59;26.33;;;18.07;;
19414;SDS011;9843;48.882;12.592;2024-01-30T13:53:26;21.23;;;16.37;;
19414;SDS011;9843;48.882;12.592;2024-01-30T13:55:53;24.97;;;16.43;;
19414;SDS011;9843;48.882;12.592;2024-01-30T13:58:20;24.03;;;17.70;;
19414;SDS011;9843;48.882;12.592;2024-01-30T14:00:47;25.03;;;18.17;;
19414;SDS011;9843;48.882;12.592;2024-01-30T14:03:15;24.60;;;17.27;;
19414;SDS011;9843;48.882;12.592;2024-01-30T14:05:43;24.60;;;20.02;;
19414;SDS011;9843;48.882;12.592;2024-01-30T14:08:10;18.70;;;16.37;;
19414;SDS011;9843;48.882;12.592;2024-01-30T14:10:37;27.53;;;18.47;;
19414;SDS011;9843;48.882;12.592;2024-01-30T14:13:04;21.33;;;16.23;;
19414;SDS011;9843;48.882;12.592;2024-01-30T14:15:32;24.57;;;18.20;;
19414;SDS011;9843;48.882;12.592;2024-01-30T14:17:59;23.75;;;18.95;;
19414;SDS011;9843;48.882;12.592;2024-01-30T14:20:26;28.00;;;20.20;;
19414;SDS011;9843;48.882;12.592;2024-01-30T14:22:54;27.30;;;18.27;;